createdAt,value
2019-05-01T00:02:33.570Z,5.22
2019-05-01T00:05:19.372Z,4.95
2019-05-01T00:07:47.813Z,5.33
2019-05-01T00:10:16.198Z,5.20
2019-05-01T00:12:44.526Z,5.12
2019-05-01T00:15:13.380Z,5.45
2019-05-01T00:17:41.816Z,4.95
2019-05-01T00:20:10.300Z,5.08
2019-05-01T00:22:38.586Z,5.00
2019-05-01T00:25:06.994Z,4.65
2019-05-01T00:27:35.250Z,4.90
2019-05-01T00:30:04.338Z,5.22
2019-05-01T00:32:32.774Z,4.85
2019-05-01T00:35:01.144Z,5.25
2019-05-01T00:37:29.535Z,5.00
2019-05-01T00:39:57.834Z,4.72
2019-05-01T00:42:26.153Z,4.83
2019-05-01T00:44:54.562Z,5.15
2019-05-01T00:47:22.924Z,4.85
2019-05-01T00:49:51.180Z,4.90
2019-05-01T00:52:19.493Z,4.97
2019-05-01T00:54:49.450Z,5.10
2019-05-01T00:57:30.925Z,5.12
2019-05-01T01:00:09.422Z,4.92
2019-05-01T01:02:39.290Z,5.28
2019-05-01T01:05:07.698Z,4.85
2019-05-01T01:07:36.016Z,4.55
2019-05-01T01:10:07.187Z,5.00
2019-05-01T01:12:35.562Z,4.78
2019-05-01T01:15:04.470Z,4.90
2019-05-01T01:17:32.748Z,4.83
2019-05-01T01:20:01.048Z,4.75
2019-05-01T01:22:29.435Z,4.80
2019-05-01T01:24:57.798Z,4.67
2019-05-01T01:27:26.098Z,4.92
2019-05-01T01:29:54.432Z,4.80
2019-05-01T01:32:22.740Z,4.95
2019-05-01T01:34:51.079Z,4.83
2019-05-01T01:37:19.395Z,5.00
2019-05-01T01:39:47.926Z,4.85
2019-05-01T01:42:16.284Z,5.05
2019-05-01T01:45:01.331Z,4.97
2019-05-01T01:47:29.846Z,5.03
2019-05-01T01:49:58.133Z,4.65
2019-05-01T01:52:26.690Z,5.00
2019-05-01T01:54:55.284Z,4.90
2019-05-01T01:57:23.706Z,4.78
2019-05-01T01:59:52.381Z,4.87
2019-05-01T02:02:25.079Z,4.50
2019-05-01T02:04:55.039Z,4.78
2019-05-01T02:07:23.350Z,4.90
2019-05-01T02:09:51.907Z,4.85
2019-05-01T02:12:20.379Z,4.97
2019-05-01T02:14:48.650Z,4.62
2019-05-01T02:17:16.918Z,4.87
2019-05-01T02:19:45.585Z,4.83
2019-05-01T02:22:13.856Z,4.75
2019-05-01T02:24:42.177Z,5.00
2019-05-01T02:27:18.151Z,4.67
2019-05-01T02:29:48.249Z,4.60
2019-05-01T02:32:17.700Z,4.83
2019-05-01T02:34:47.102Z,4.70
2019-05-01T02:37:15.460Z,4.55
2019-05-01T02:39:43.705Z,4.87
2019-05-01T02:42:13.723Z,4.53
2019-05-01T02:44:46.641Z,4.80
2019-05-01T02:49:44.131Z,4.40
2019-05-01T02:52:12.836Z,5.00
2019-05-01T02:54:41.870Z,4.97
2019-05-01T02:57:11.897Z,4.70
2019-05-01T02:59:41.777Z,4.95
2019-05-01T03:02:10.739Z,4.53
2019-05-01T03:04:39.384Z,4.65
2019-05-01T03:07:07.859Z,4.72
2019-05-01T03:09:36.298Z,4.42
2019-05-01T03:12:04.741Z,4.53
2019-05-01T03:14:34.538Z,4.87
2019-05-01T03:17:05.212Z,4.67
2019-05-01T03:19:36.086Z,4.70
2019-05-01T03:22:06.596Z,4.37
2019-05-01T03:24:34.963Z,4.58
2019-05-01T03:27:03.476Z,4.55
2019-05-01T03:29:31.810Z,4.65
2019-05-01T03:32:17.313Z,5.00
2019-05-01T03:34:30.680Z,4.47
2019-05-01T03:36:59.433Z,5.10
2019-05-01T03:39:27.883Z,4.70
2019-05-01T03:41:56.466Z,4.70
2019-05-01T03:44:25.188Z,4.47
2019-05-01T03:46:53.693Z,4.85
2019-05-01T03:49:22.052Z,4.72
2019-05-01T03:51:50.377Z,4.40
2019-05-01T03:54:18.971Z,4.50
2019-05-01T03:56:47.364Z,4.65
2019-05-01T03:59:16.458Z,4.40
2019-05-01T04:01:55.401Z,4.67
2019-05-01T04:04:25.352Z,4.78
2019-05-01T04:06:54.069Z,4.80
2019-05-01T04:09:22.777Z,4.35
2019-05-01T04:11:51.062Z,4.45
2019-05-01T04:14:19.603Z,4.50
2019-05-01T04:16:49.478Z,4.72
2019-05-01T04:19:17.807Z,4.67
2019-05-01T04:21:47.895Z,4.83
2019-05-01T04:24:16.192Z,4.65
2019-05-01T04:26:44.906Z,4.30
2019-05-01T04:29:14.847Z,4.53
2019-05-01T04:31:54.056Z,4.50
2019-05-01T04:34:40.443Z,4.70
2019-05-01T04:37:10.654Z,4.72
2019-05-01T04:39:39.049Z,4.40
2019-05-01T04:42:07.379Z,4.30
2019-05-01T04:44:35.752Z,4.55
2019-05-01T04:47:04.317Z,4.40
2019-05-01T04:49:32.619Z,4.35
2019-05-01T04:52:01.948Z,4.62
2019-05-01T04:54:30.257Z,4.28
2019-05-01T04:56:58.592Z,4.45
2019-05-01T04:59:26.914Z,4.40
2019-05-01T05:01:59.988Z,3.95
2019-05-01T05:04:29.107Z,4.15
2019-05-01T05:06:57.471Z,4.28
2019-05-01T05:09:45.248Z,4.15
2019-05-01T05:12:18.162Z,4.22
2019-05-01T05:17:20.071Z,4.25
2019-05-01T05:19:48.550Z,4.22
2019-05-01T05:22:16.884Z,4.05
2019-05-01T05:24:45.619Z,4.28
2019-05-01T05:27:14.042Z,4.05
2019-05-01T05:29:43.774Z,3.95
2019-05-01T05:32:12.176Z,4.03
2019-05-01T05:34:41.082Z,4.30
2019-05-01T05:37:12.552Z,4.20
2019-05-01T05:39:45.385Z,4.17
2019-05-01T05:42:14.020Z,4.37
2019-05-01T05:44:42.514Z,4.50
2019-05-01T05:47:10.981Z,4.30
2019-05-01T05:49:39.726Z,4.42
2019-05-01T05:52:17.046Z,4.55
2019-05-01T05:54:48.490Z,4.00
2019-05-01T05:57:19.445Z,4.00
2019-05-01T05:59:53.562Z,4.50
2019-05-01T06:02:32.569Z,4.20
2019-05-01T06:05:06.566Z,4.55
2019-05-01T06:07:54.413Z,3.90
2019-05-01T06:10:30.821Z,4.47
2019-05-01T06:13:10.545Z,4.22
2019-05-01T06:15:41.131Z,4.30
2019-05-01T06:18:12.221Z,4.17
2019-05-01T06:20:44.870Z,4.10
2019-05-01T06:23:26.820Z,3.98
2019-05-01T06:26:00.101Z,4.10
2019-05-01T06:28:29.705Z,4.22
2019-05-01T06:30:59.681Z,4.47
2019-05-01T06:33:28.042Z,3.90
2019-05-01T06:35:56.332Z,4.10
2019-05-01T06:38:24.661Z,3.95
2019-05-01T06:40:58.051Z,4.15
2019-05-01T06:43:45.776Z,4.10
2019-05-01T06:46:16.552Z,4.03
2019-05-01T06:48:48.940Z,4.12
2019-05-01T06:51:34.566Z,4.20
2019-05-01T06:54:03.591Z,4.30
2019-05-01T06:56:32.521Z,4.10
2019-05-01T06:59:01.355Z,3.83
2019-05-01T07:01:30.035Z,4.03
2019-05-01T07:04:03.642Z,4.65
2019-05-01T07:06:31.086Z,7.47
2019-05-01T07:08:58.696Z,8.18
2019-05-01T07:11:27.098Z,8.45
2019-05-01T07:13:55.976Z,9.23
2019-05-01T07:16:24.297Z,8.20
2019-05-01T07:18:58.115Z,9.25
2019-05-01T07:21:27.743Z,8.85
2019-05-01T07:23:54.412Z,9.00
2019-05-01T07:26:22.903Z,8.45
2019-05-01T07:28:55.876Z,8.68
2019-05-01T07:33:54.275Z,8.93
2019-05-01T07:36:22.589Z,10.38
2019-05-01T07:38:53.694Z,9.78
2019-05-01T07:41:22.154Z,9.18
2019-05-01T07:44:01.234Z,9.53
2019-05-01T07:46:37.154Z,9.90
2019-05-01T07:49:05.755Z,9.93
2019-05-01T07:51:37.787Z,10.38
2019-05-01T07:54:08.472Z,9.08
2019-05-01T07:56:34.224Z,9.90
2019-05-01T07:59:02.686Z,9.53
2019-05-01T08:01:32.699Z,9.50
2019-05-01T08:04:01.092Z,9.25
2019-05-01T08:06:29.382Z,9.60
2019-05-01T08:08:57.697Z,9.55
2019-05-01T08:11:26.147Z,10.35
2019-05-01T08:14:06.598Z,9.23
2019-05-01T08:16:24.463Z,13.60
2019-05-01T08:19:03.994Z,14.00
2019-05-01T08:21:34.799Z,13.58
2019-05-01T08:24:08.621Z,13.72
2019-05-01T08:29:21.324Z,13.48
2019-05-01T08:32:06.248Z,12.43
2019-05-01T08:34:48.224Z,13.03
2019-05-01T08:37:06.606Z,12.82
2019-05-01T08:39:34.984Z,11.83
2019-05-01T08:42:06.998Z,11.10
2019-05-01T08:44:51.051Z,9.13
2019-05-01T08:47:25.727Z,9.73
2019-05-01T08:49:52.576Z,7.37
2019-05-01T08:52:20.975Z,6.60
2019-05-01T08:54:49.267Z,6.20
2019-05-01T08:57:17.516Z,6.20
2019-05-01T08:59:45.864Z,5.78
2019-05-01T09:02:14.280Z,6.08
2019-05-01T09:04:42.678Z,5.85
2019-05-01T09:07:14.632Z,5.78
2019-05-01T09:09:45.307Z,5.95
2019-05-01T09:12:12.010Z,5.92
2019-05-01T09:14:40.882Z,5.72
2019-05-01T09:17:09.221Z,6.20
2019-05-01T09:19:37.621Z,6.12
2019-05-01T09:22:06.424Z,6.53
2019-05-01T09:24:34.875Z,6.30
2019-05-01T09:27:18.624Z,6.30
2019-05-01T09:29:52.732Z,6.78
2019-05-01T09:32:21.228Z,6.22
2019-05-01T09:34:49.574Z,6.58
2019-05-01T09:37:17.877Z,6.33
2019-05-01T09:39:47.476Z,6.47
2019-05-01T09:42:22.737Z,6.50
2019-05-01T09:44:45.949Z,6.30
2019-05-01T09:47:14.384Z,6.37
2019-05-01T09:49:42.755Z,6.30
2019-05-01T09:52:23.497Z,5.83
2019-05-01T09:54:53.092Z,6.03
2019-05-01T09:57:21.496Z,6.33
2019-05-01T09:59:49.839Z,6.45
2019-05-01T10:02:18.210Z,6.53
2019-05-01T10:04:46.552Z,6.22
2019-05-01T10:07:14.946Z,6.20
2019-05-01T10:09:47.152Z,6.20
2019-05-01T10:12:13.301Z,5.95
2019-05-01T10:14:41.564Z,6.47
2019-05-01T10:17:09.880Z,6.05
2019-05-01T10:19:38.168Z,6.47
2019-05-01T10:22:06.499Z,6.03
2019-05-01T10:24:37.593Z,5.97
2019-05-01T10:27:06.472Z,6.15
2019-05-01T10:29:56.824Z,6.10
2019-05-01T10:32:26.035Z,5.60
2019-05-01T10:34:56.771Z,5.97
2019-05-01T10:37:28.232Z,6.10
2019-05-01T10:39:55.408Z,5.87
2019-05-01T10:42:23.763Z,6.15
2019-05-01T10:44:52.140Z,5.62
2019-05-01T10:47:20.457Z,5.17
2019-05-01T10:49:48.682Z,5.78
2019-05-01T10:52:17.044Z,5.87
2019-05-01T10:54:46.610Z,6.10
2019-05-01T10:57:14.997Z,5.70
2019-05-01T10:59:43.319Z,5.53
2019-05-01T11:02:13.309Z,5.58
2019-05-01T11:04:41.666Z,5.50
2019-05-01T11:07:10.120Z,5.40
2019-05-01T11:09:38.513Z,6.28
2019-05-01T11:12:06.835Z,5.70
2019-05-01T11:14:35.108Z,5.50
2019-05-01T11:17:03.468Z,5.53
2019-05-01T11:19:32.715Z,5.25
2019-05-01T11:22:01.049Z,5.72
2019-05-01T11:24:29.287Z,5.62
2019-05-01T11:26:57.582Z,5.55
2019-05-01T11:29:25.962Z,5.60
2019-05-01T11:31:55.894Z,5.78
2019-05-01T11:34:42.183Z,5.70
2019-05-01T11:37:30.053Z,5.28
2019-05-01T11:39:59.912Z,5.22
2019-05-01T11:42:28.264Z,5.50
2019-05-01T11:44:56.588Z,5.35
2019-05-01T11:47:24.936Z,5.60
2019-05-01T11:49:53.266Z,5.60
2019-05-01T11:52:21.518Z,5.60
2019-05-01T11:54:49.909Z,5.55
2019-05-01T11:57:18.331Z,5.72
2019-05-01T11:59:46.664Z,5.47
2019-05-01T12:02:14.925Z,5.25
2019-05-01T12:04:43.313Z,5.35
2019-05-01T12:07:11.640Z,5.50
2019-05-01T12:09:39.977Z,5.65
2019-05-01T12:12:12.342Z,5.37
2019-05-01T12:14:40.735Z,5.72
2019-05-01T12:17:19.597Z,5.58
2019-05-01T12:19:48.053Z,5.80
2019-05-01T12:22:16.398Z,5.70
2019-05-01T12:24:44.852Z,5.50
2019-05-01T12:27:13.130Z,5.28
2019-05-01T12:29:41.476Z,5.45
2019-05-01T12:32:09.811Z,4.97
2019-05-01T12:34:38.159Z,5.28
2019-05-01T12:37:22.707Z,5.37
2019-05-01T12:39:51.062Z,5.37
2019-05-01T12:42:20.988Z,7.25
2019-05-01T12:44:49.353Z,15.80
2019-05-01T12:47:19.472Z,31.73
2019-05-01T12:49:49.530Z,38.60
2019-05-01T12:52:37.559Z,31.20
2019-05-01T12:55:24.064Z,33.15
2019-05-01T12:57:52.381Z,22.65
2019-05-01T13:00:22.266Z,19.90
2019-05-01T13:02:50.567Z,23.52
2019-05-01T13:05:18.854Z,18.32
2019-05-01T13:07:47.253Z,18.52
2019-05-01T13:10:15.791Z,17.95
2019-05-01T13:12:44.171Z,18.55
2019-05-01T13:15:12.590Z,16.02
2019-05-01T13:17:41.013Z,14.65
2019-05-01T13:20:09.590Z,14.53
2019-05-01T13:22:37.929Z,13.68
2019-05-01T13:25:06.664Z,15.98
2019-05-01T13:27:36.670Z,15.83
2019-05-01T13:30:10.864Z,11.18
2019-05-01T13:32:43.764Z,12.15
2019-05-01T13:37:39.756Z,11.65
2019-05-01T13:40:08.432Z,9.88
2019-05-01T13:42:36.870Z,9.45
2019-05-01T13:45:07.006Z,9.25
2019-05-01T13:47:35.373Z,8.63
2019-05-01T13:50:05.357Z,8.40
2019-05-01T13:52:33.684Z,8.03
2019-05-01T13:55:02.043Z,7.90
2019-05-01T13:57:30.450Z,8.15
2019-05-01T13:59:58.766Z,7.78
2019-05-01T14:02:27.492Z,7.37
2019-05-01T14:04:55.754Z,7.75
2019-05-01T14:07:24.089Z,7.60
2019-05-01T14:09:52.470Z,7.42
2019-05-01T14:12:23.524Z,7.40
2019-05-01T14:14:51.892Z,6.45
2019-05-01T14:17:20.228Z,5.83
2019-05-01T14:19:50.175Z,6.65
2019-05-01T14:22:32.235Z,7.10
2019-05-01T14:25:05.210Z,6.78
2019-05-01T14:30:01.097Z,5.85
2019-05-01T14:32:29.537Z,5.40
2019-05-01T14:34:57.828Z,6.20
2019-05-01T14:37:29.822Z,6.40
2019-05-01T14:39:55.980Z,5.70
2019-05-01T14:42:24.290Z,5.80
2019-05-01T14:44:52.571Z,5.70
2019-05-01T14:47:20.811Z,6.15
2019-05-01T14:49:49.337Z,6.22
2019-05-01T14:52:17.766Z,6.47
2019-05-01T14:54:46.163Z,6.20
2019-05-01T14:57:14.424Z,6.10
2019-05-01T14:59:42.761Z,5.50
2019-05-01T15:02:11.053Z,6.15
2019-05-01T15:04:39.595Z,5.22
2019-05-01T15:07:10.982Z,5.90
2019-05-01T15:09:38.105Z,6.20
2019-05-01T15:12:08.130Z,5.15
2019-05-01T15:14:38.115Z,5.67
2019-05-01T15:17:08.032Z,5.85
2019-05-01T15:19:40.774Z,6.17
2019-05-01T15:24:36.702Z,6.72
2019-05-01T15:27:05.195Z,5.53
2019-05-01T15:29:33.548Z,5.70
2019-05-01T15:32:02.008Z,6.10
2019-05-01T15:34:30.331Z,5.87
2019-05-01T15:36:58.748Z,6.75
2019-05-01T15:39:31.813Z,6.53
2019-05-01T15:42:17.843Z,6.62
2019-05-01T15:44:48.974Z,6.47
2019-05-01T15:47:17.346Z,6.40
2019-05-01T15:49:45.588Z,6.58
2019-05-01T15:52:13.982Z,6.08
2019-05-01T15:54:42.254Z,6.17
2019-05-01T15:57:10.575Z,6.40
2019-05-01T15:59:38.822Z,5.83
2019-05-01T16:02:07.321Z,5.58
2019-05-01T16:04:35.648Z,5.72
2019-05-01T16:07:04.052Z,6.45
2019-05-01T16:09:32.385Z,5.80
2019-05-01T16:12:17.299Z,5.62
2019-05-01T16:14:46.103Z,5.83
2019-05-01T16:17:14.512Z,5.80
2019-05-01T16:19:42.855Z,5.35
2019-05-01T16:22:11.305Z,5.65
2019-05-01T16:24:45.483Z,5.17
2019-05-01T16:27:13.883Z,5.55
2019-05-01T16:29:42.211Z,5.33
2019-05-01T16:32:10.510Z,5.90
2019-05-01T16:34:38.819Z,5.33
2019-05-01T16:37:07.235Z,5.50
2019-05-01T16:39:55.069Z,5.58
2019-05-01T16:42:23.795Z,5.92
2019-05-01T16:44:52.041Z,6.70
2019-05-01T16:47:20.449Z,5.70
2019-05-01T16:49:48.725Z,5.40
2019-05-01T16:52:18.698Z,5.25
2019-05-01T16:54:58.771Z,5.50
2019-05-01T16:57:17.465Z,4.92
2019-05-01T16:59:45.788Z,5.42
2019-05-01T17:02:15.988Z,5.20
2019-05-01T17:04:52.003Z,5.37
2019-05-01T17:07:38.586Z,5.03
2019-05-01T17:10:08.662Z,5.15
2019-05-01T17:12:47.587Z,4.95
2019-05-01T17:15:17.742Z,5.37
2019-05-01T17:17:46.087Z,5.17
2019-05-01T17:20:14.732Z,4.87
2019-05-01T17:22:46.311Z,5.42
2019-05-01T17:25:13.053Z,4.92
2019-05-01T17:27:41.324Z,5.35
2019-05-01T17:30:11.312Z,4.90
2019-05-01T17:32:43.856Z,5.30
2019-05-01T17:35:09.806Z,4.92
2019-05-01T17:37:38.171Z,5.03
2019-05-01T17:40:06.656Z,5.00
2019-05-01T17:42:37.691Z,4.95
2019-05-01T17:45:06.111Z,5.30
2019-05-01T17:47:34.415Z,5.58
2019-05-01T17:50:02.803Z,5.15
2019-05-01T17:52:31.052Z,4.83
2019-05-01T17:55:01.350Z,5.12
2019-05-01T17:57:29.358Z,5.30
2019-05-01T18:00:01.776Z,5.45
2019-05-01T18:02:34.406Z,6.08
2019-05-01T18:05:13.165Z,6.22
2019-05-01T18:07:41.399Z,6.10
2019-05-01T18:10:09.646Z,6.55
2019-05-01T18:12:37.947Z,6.50
2019-05-01T18:15:06.607Z,6.25
2019-05-01T18:17:34.947Z,6.40
2019-05-01T18:20:03.879Z,5.85
2019-05-01T18:22:51.850Z,5.35
2019-05-01T18:25:21.841Z,5.28
2019-05-01T18:28:07.621Z,5.22
2019-05-01T18:30:37.657Z,5.03
2019-05-01T18:33:06.024Z,4.95
2019-05-01T18:35:34.388Z,5.00
2019-05-01T18:38:11.503Z,5.00
2019-05-01T18:40:47.983Z,5.08
2019-05-01T18:43:16.366Z,5.08
2019-05-01T18:45:46.151Z,4.72
2019-05-01T18:48:14.425Z,5.28
2019-05-01T18:50:42.782Z,4.70
2019-05-01T18:53:12.531Z,4.78
2019-05-01T18:55:41.144Z,5.12
2019-05-01T18:58:09.564Z,5.20
2019-05-01T19:00:37.929Z,5.08
2019-05-01T19:03:06.387Z,4.55
2019-05-01T19:05:34.718Z,5.08
2019-05-01T19:08:03.140Z,4.92
2019-05-01T19:10:31.467Z,4.87
2019-05-01T19:12:59.777Z,4.90
2019-05-01T19:15:28.247Z,4.55
2019-05-01T19:17:56.568Z,4.80
2019-05-01T19:20:25.002Z,4.62
2019-05-01T19:22:53.351Z,5.03
2019-05-01T19:25:21.682Z,4.60
2019-05-01T19:27:50.178Z,4.80
2019-05-01T19:30:18.698Z,5.37
2019-05-01T19:32:47.207Z,4.62
2019-05-01T19:35:15.641Z,4.67
2019-05-01T19:37:44.044Z,4.80
2019-05-01T19:40:12.810Z,4.30
2019-05-01T19:42:41.164Z,4.58
2019-05-01T19:45:09.547Z,4.70
2019-05-01T19:47:38.023Z,4.53
2019-05-01T19:50:09.563Z,4.78
2019-05-01T19:52:39.851Z,4.80
2019-05-01T19:55:08.127Z,4.85
2019-05-01T19:57:36.486Z,4.40
2019-05-01T20:00:06.345Z,4.53
2019-05-01T20:02:34.912Z,4.58
2019-05-01T20:05:04.465Z,4.53
2019-05-01T20:07:32.792Z,4.65
2019-05-01T20:10:01.144Z,4.60
2019-05-01T20:12:30.037Z,4.67
2019-05-01T20:14:58.506Z,4.20
2019-05-01T20:17:26.854Z,4.67
2019-05-01T20:19:55.233Z,4.72
2019-05-01T20:22:23.446Z,3.95
2019-05-01T20:24:51.875Z,4.12
2019-05-01T20:27:20.295Z,4.55
2019-05-01T20:29:48.944Z,4.22
2019-05-01T20:32:21.035Z,4.53
2019-05-01T20:34:48.085Z,4.35
2019-05-01T20:37:17.284Z,4.45
2019-05-01T20:39:45.693Z,4.85
2019-05-01T20:42:14.018Z,4.20
2019-05-01T20:44:42.407Z,4.60
2019-05-01T20:47:10.744Z,4.65
2019-05-01T20:49:41.303Z,5.00
2019-05-01T20:52:09.098Z,4.40
2019-05-01T20:54:37.428Z,4.35
2019-05-01T20:57:07.438Z,4.65
2019-05-01T20:59:39.254Z,4.33
2019-05-01T21:02:08.227Z,4.25
2019-05-01T21:04:49.353Z,4.30
2019-05-01T21:07:29.488Z,4.03
2019-05-01T21:09:59.640Z,4.55
2019-05-01T21:12:28.162Z,4.45
2019-05-01T21:14:56.517Z,4.60
2019-05-01T21:17:24.894Z,4.47
2019-05-01T21:19:54.479Z,4.50
2019-05-01T21:22:23.445Z,4.60
2019-05-01T21:24:53.289Z,4.22
2019-05-01T21:27:21.623Z,4.50
2019-05-01T21:29:54.465Z,4.49
2019-05-01T21:32:27.092Z,4.20
2019-05-01T21:34:53.695Z,4.42
2019-05-01T21:37:22.112Z,4.37
2019-05-01T21:39:50.353Z,4.50
2019-05-01T21:42:18.700Z,4.37
2019-05-01T21:44:47.084Z,4.30
2019-05-01T21:47:15.473Z,4.28
2019-05-01T21:49:43.707Z,4.35
2019-05-01T21:52:13.435Z,4.03
2019-05-01T21:54:41.992Z,4.20
2019-05-01T21:57:11.961Z,4.42
2019-05-01T21:59:44.746Z,4.03
2019-05-01T22:02:12.008Z,4.67
2019-05-01T22:04:40.449Z,4.65
2019-05-01T22:07:08.775Z,4.17
2019-05-01T22:09:38.703Z,4.37
2019-05-01T22:12:08.329Z,4.37
2019-05-01T22:14:41.677Z,4.53
2019-05-01T22:17:11.678Z,4.30
2019-05-01T22:19:40.028Z,4.50
2019-05-01T22:22:18.943Z,4.10
2019-05-01T22:24:54.330Z,4.17
2019-05-01T22:27:27.001Z,4.25
2019-05-01T22:29:57.247Z,4.42
2019-05-01T22:32:27.720Z,4.40
2019-05-01T22:35:01.994Z,4.22
2019-05-01T22:37:30.560Z,4.42
2019-05-01T22:40:03.186Z,4.25
2019-05-01T22:42:31.594Z,4.53
2019-05-01T22:44:59.946Z,4.50
2019-05-01T22:47:28.521Z,4.45
2019-05-01T22:49:56.955Z,4.20
2019-05-01T22:52:25.239Z,4.37
2019-05-01T22:54:53.663Z,4.03
2019-05-01T22:57:23.363Z,4.25
2019-05-01T22:59:51.703Z,4.15
2019-05-01T23:02:28.246Z,4.42
2019-05-01T23:04:54.399Z,4.42
2019-05-01T23:07:22.701Z,4.30
2019-05-01T23:09:51.020Z,4.30
2019-05-01T23:12:19.423Z,3.98
2019-05-01T23:14:47.762Z,4.28
2019-05-01T23:17:23.264Z,4.45
2019-05-01T23:19:51.519Z,4.35
2019-05-01T23:22:20.949Z,4.37
2019-05-01T23:24:49.382Z,4.33
2019-05-01T23:27:17.779Z,4.12
2019-05-01T23:29:46.177Z,3.98
2019-05-01T23:32:14.483Z,4.20
2019-05-01T23:34:43.056Z,4.65
2019-05-01T23:37:11.314Z,4.08
2019-05-01T23:39:42.038Z,4.33
2019-05-01T23:42:09.778Z,4.05
2019-05-01T23:44:42.528Z,4.20
2019-05-01T23:47:08.221Z,4.30
2019-05-01T23:49:36.523Z,4.08
2019-05-01T23:52:05.593Z,3.90
2019-05-01T23:54:34.000Z,4.10
2019-05-01T23:57:02.356Z,4.12
2019-05-01T23:59:30.671Z,4.30
